Shoal Lake, Canada
Current Conditions -  °F | °C
As of 9:00 PM on Saturday 22 Nov 2014 (Local Time) from CYBR Reporting Station
Haze Haze  
Wind Chill: 12°   Ceiling: 200
Heat Index: 25°   Visibility: 0.62mi
Dew Point: 25°   Wind: 15mph
Humidity: 100%   Direction: 80°E
Pressure: 29.29"   Gusts: NA
Location:  50.43°N, 100.58°W
Report Text: CYBR 230300Z 08013KT 5/8SM BR OVC002 M04/M04 A2929 RMK FG6ST2 RIME ON INDICATOR SLP942
Loading
Personal Weather Stations






























Interactive Weather Map New forecast layout! Learn more

10-Day Weather Forecast

Advertisements
Track Severe Weather on mobile